Time;durP1;ratioP1;P1;durP2;ratioP2;P2;SDS_P1;SDS_P2;PMS_P1;PMS_P2;Temp;Humidity;BMP_temperature;BMP_pressure;BME280_temperature;BME280_humidity;BME280_pressure;Samples;Min_cycle;Max_cycle;Signal;HPM_P1;HPM_P2
2024/01/01 00:00:31;;;;;;;;;;;;;;;7.56;62.82;99034.00;1087028;47;1301;-76
2024/01/01 00:01:39;;;;;;;;;;;;;;;7.56;62.82;99033.19;1086006;47;1526;-78
2024/01/01 00:02:40;;;;;;;;;;;;;;;7.62;62.63;99038.75;1084243;54;1009;-75
2024/01/01 00:03:43;;;;;;;;;;;;;;;7.55;63.13;99037.69;1086403;54;1192;-75
2024/01/01 00:04:44;;;;;;;;;;;;;;;7.54;63.19;99036.00;1087883;47;1846;-75
2024/01/01 00:05:47;;;;;;;;;;;;;;;7.59;62.99;99039.03;1087607;54;1370;-77
2024/01/01 00:06:49;;;;;;;;;;;;;;;7.30;63.24;99040.06;1087601;54;1036;-77
2024/01/01 00:07:52;;;;;;;;;;;;;;;7.36;63.21;99043.94;1087871;54;1069;-76
2024/01/01 00:08:53;;;;;;;;;;;;;;;7.45;62.96;99047.56;1087695;54;1369;-76
2024/01/01 00:09:56;;;;;;;;;;;;;;;7.52;62.83;99037.97;1087655;54;1531;-76
2024/01/01 00:10:57;;;;;;;;;;;;;;;7.46;62.62;99049.22;1087834;47;1467;-78
2024/01/01 00:12:00;;;;;;;;;;;;;;;7.54;62.50;99046.66;1088272;47;1059;-78
2024/01/01 00:13:01;;;;;;;;;;;;;;;7.51;62.53;99054.91;1088137;47;1071;-78
2024/01/01 00:14:04;;;;;;;;;;;;;;;7.42;62.75;99043.34;1088449;54;1011;-78
2024/01/01 00:15:08;;;;;;;;;;;;;;;7.52;62.50;99048.63;1088369;47;1068;-78
2024/01/01 00:16:11;;;;;;;;;;;;;;;7.54;62.61;99054.63;1088492;46;1054;-77
2024/01/01 00:17:13;;;;;;;;;;;;;;;7.57;62.67;99049.00;1088249;54;1142;-76
2024/01/01 00:18:17;;;;;;;;;;;;;;;7.48;62.97;99048.09;1087928;54;990;-79
2024/01/01 00:19:18;;;;;;;;;;;;;;;7.50;62.67;99042.59;1087219;46;979;-78
2024/01/01 00:20:19;;;;;;;;;;;;;;;7.37;62.83;99044.81;1087211;54;1412;-82
2024/01/01 00:21:22;;;;;;;;;;;;;;;7.50;62.72;99039.94;1086778;54;1126;-76
2024/01/01 00:22:22;;;;;;;;;;;;;;;7.54;62.50;99041.34;1087512;54;1185;-79
2024/01/01 00:23:26;;;;;;;;;;;;;;;7.47;62.64;99046.41;1087975;47;1208;-76
2024/01/01 00:24:26;;;;;;;;;;;;;;;7.49;62.63;99043.59;1087029;54;1847;-77
2024/01/01 00:25:27;;;;;;;;;;;;;;;7.53;62.25;99041.47;1087878;47;1075;-78
2024/01/01 00:26:31;;;;;;;;;;;;;;;7.53;62.48;99047.63;1087996;47;991;-79
2024/01/01 00:27:33;;;;;;;;;;;;;;;7.59;62.20;99039.03;1088287;46;958;-79
2024/01/01 00:28:36;;;;;;;;;;;;;;;7.54;62.64;99044.00;1087708;54;1011;-78
2024/01/01 00:29:37;;;;;;;;;;;;;;;7.55;62.49;99048.34;1087935;54;1132;-78
2024/01/01 00:30:43;;;;;;;;;;;;;;;7.59;62.39;99040.88;1087362;54;1409;-79
2024/01/01 00:31:45;;;;;;;;;;;;;;;7.68;62.12;99044.44;1087453;54;1008;-78
2024/01/01 00:32:48;;;;;;;;;;;;;;;7.65;62.01;99041.09;1087769;47;1090;-78
2024/01/01 00:33:48;;;;;;;;;;;;;;;7.62;61.93;99041.41;1087711;47;1011;-79
2024/01/01 00:34:52;;;;;;;;;;;;;;;7.54;62.43;99046.66;1087909;46;1078;-79
2024/01/01 00:35:59;;;;;;;;;;;;;;;7.56;62.13;99039.34;1087658;47;1114;-78
2024/01/01 00:37:02;;;;;;;;;;;;;;;7.59;62.05;99039.03;1087742;54;1149;-77
2024/01/01 00:38:03;;;;;;;;;;;;;;;7.56;62.07;99044.66;1088257;46;1060;-79
2024/01/01 00:39:04;;;;;;;;;;;;;;;7.61;62.31;99045.06;1086963;54;1242;-78
2024/01/01 00:40:08;;;;;;;;;;;;;;;7.72;61.81;99049.31;1087121;54;1389;-78
2024/01/01 00:41:12;;;;;;;;;;;;;;;7.66;62.11;99041.94;1087840;54;1094;-78
2024/01/01 00:42:15;;;;;;;;;;;;;;;7.75;62.23;99037.53;1087153;54;1075;-77
2024/01/01 00:43:23;;;;;;;;;;;;;;;7.75;62.07;99037.53;1086112;47;1177;-77
2024/01/01 00:44:27;;;;;;;;;;;;;;;7.78;62.25;99037.25;1086388;47;1142;-78
2024/01/01 00:45:27;;;;;;;;;;;;;;;7.80;62.05;99041.41;1087070;54;1177;-78
2024/01/01 00:46:35;;;;;;;;;;;;;;;7.75;61.98;99038.38;1086840;54;1329;-78
2024/01/01 00:47:38;;;;;;;;;;;;;;;7.69;62.26;99043.47;1086463;54;1471;-79
2024/01/01 00:48:41;;;;;;;;;;;;;;;7.69;62.77;99039.00;1086277;54;1486;-77
2024/01/01 00:49:42;;;;;;;;;;;;;;;7.67;62.54;99046.28;1087671;47;1111;-77
2024/01/01 00:50:45;;;;;;;;;;;;;;;7.72;62.25;99051.97;1087986;54;1384;-76
2024/01/01 00:51:45;;;;;;;;;;;;;;;7.69;62.30;99039.00;1088055;54;1012;-76
2024/01/01 00:52:50;;;;;;;;;;;;;;;7.74;62.82;99035.88;1088010;54;1183;-76
2024/01/01 00:53:52;;;;;;;;;;;;;;;7.74;62.91;99042.03;1086845;46;933;-78
2024/01/01 00:54:55;;;;;;;;;;;;;;;7.76;62.42;99039.19;1086619;54;1104;-80
2024/01/01 00:57:18;;;;;;;;;;;;;;;7.45;63.62;99047.56;1086628;54;928;-79
2024/01/01 00:58:19;;;;;;;;;;;;;;;7.58;63.34;99042.69;1086518;46;1039;-76
2024/01/01 00:59:23;;;;;;;;;;;;;;;7.59;63.26;99043.53;1086623;54;1190;-78
2024/01/01 01:00:23;;;;;;;;;;;;;;;7.49;63.62;99049.75;1087113;46;1383;-77
2024/01/01 01:01:26;;;;;;;;;;;;;;;7.53;63.72;99044.13;1087901;54;968;-77
2024/01/01 01:02:30;;;;;;;;;;;;;;;7.60;63.57;99039.91;1087939;54;886;-77
2024/01/01 01:03:35;;;;;;;;;;;;;;;7.67;63.41;99040.97;1087359;46;1151;-76
2024/01/01 01:04:36;;;;;;;;;;;;;;;7.68;63.50;99037.31;1087505;54;1852;-76
2024/01/01 01:05:39;;;;;;;;;;;;;;;7.48;64.18;99050.75;1087352;54;1665;-76
2024/01/01 01:06:40;;;;;;;;;;;;;;;7.46;64.09;99047.38;1087718;54;1052;-77
2024/01/01 01:07:43;;;;;;;;;;;;;;;7.44;64.58;99048.53;1087419;54;1374;-79
2024/01/01 01:08:44;;;;;;;;;;;;;;;7.48;64.56;99048.09;1087097;54;1162;-78
2024/01/01 01:09:47;;;;;;;;;;;;;;;7.46;64.58;99049.22;1087441;54;1052;-78
2024/01/01 01:10:48;;;;;;;;;;;;;;;7.49;64.60;99048.91;1086697;47;1289;-78
2024/01/01 01:11:51;;;;;;;;;;;;;;;7.49;64.64;99049.75;1086616;54;1115;-79
2024/01/01 01:12:54;;;;;;;;;;;;;;;7.56;64.46;99051.81;1086910;54;964;-78
2024/01/01 01:13:57;;;;;;;;;;;;;;;7.65;64.18;99042.94;1087074;47;1115;-78
2024/01/01 01:14:57;;;;;;;;;;;;;;;7.74;64.27;99046.53;1087156;54;1071;-78
2024/01/01 01:16:02;;;;;;;;;;;;;;;7.74;64.17;99052.66;1087641;47;1153;-76
2024/01/01 01:17:03;;;;;;;;;;;;;;;7.63;64.43;99045.75;1087883;54;1158;-77
2024/01/01 01:18:09;;;;;;;;;;;;;;;7.68;64.34;99055.94;1087729;54;1110;-77
2024/01/01 01:19:09;;;;;;;;;;;;;;;7.70;64.27;99048.63;1087183;46;954;-78
2024/01/01 01:20:20;;;;;;;;;;;;;;;7.60;64.60;99047.88;1086500;54;1394;-79
2024/01/01 01:21:21;;;;;;;;;;;;;;;7.58;64.45;99045.34;1086584;54;1130;-79
2024/01/01 01:22:24;;;;;;;;;;;;;;;7.54;64.73;99049.31;1087827;54;1185;-78
2024/01/01 01:23:24;;;;;;;;;;;;;;;7.57;64.76;99051.66;1088006;54;1115;-78
2024/01/01 01:24:29;;;;;;;;;;;;;;;7.64;64.39;99055.41;1088112;54;925;-78
2024/01/01 01:25:31;;;;;;;;;;;;;;;7.55;64.45;99048.34;1087214;46;1852;-78
2024/01/01 01:26:34;;;;;;;;;;;;;;;7.53;64.78;99050.28;1087281;54;972;-78
2024/01/01 01:27:35;;;;;;;;;;;;;;;7.67;64.41;99053.41;1087167;54;1102;-77
2024/01/01 01:28:38;;;;;;;;;;;;;;;7.53;64.79;99055.63;1087630;47;1047;-78
2024/01/01 01:29:40;;;;;;;;;;;;;;;7.61;64.47;99058.34;1087598;47;1150;-78
2024/01/01 01:30:40;;;;;;;;;;;;;;;7.61;64.53;99062.81;1086692;47;1256;-78
2024/01/01 01:31:45;;;;;;;;;;;;;;;7.61;64.35;99058.34;1087088;54;1186;-77
2024/01/01 01:32:46;;;;;;;;;;;;;;;7.55;64.47;99063.44;1087763;46;1118;-77
2024/01/01 01:33:53;;;;;;;;;;;;;;;7.52;64.50;99059.25;1087765;54;1075;-77
2024/01/01 01:34:55;;;;;;;;;;;;;;;7.58;64.65;99052.50;1087443;54;1158;-77
2024/01/01 01:36:00;;;;;;;;;;;;;;;7.74;64.18;99058.00;1086150;54;1105;-77
2024/01/01 01:37:01;;;;;;;;;;;;;;;7.68;64.13;99057.75;1085870;47;1131;-77
2024/01/01 01:38:04;;;;;;;;;;;;;;;7.79;64.04;99060.19;1086226;47;1158;-78
2024/01/01 01:39:05;;;;;;;;;;;;;;;7.81;64.11;99055.56;1085938;54;1111;-78
2024/01/01 01:40:09;;;;;;;;;;;;;;;7.76;63.95;99064.00;1086132;47;1418;-78
2024/01/01 01:41:09;;;;;;;;;;;;;;;7.78;64.13;99059.38;1086178;47;1172;-80
2024/01/01 01:42:13;;;;;;;;;;;;;;;7.83;63.82;99061.59;1086013;53;1063;-78
2024/01/01 01:43:19;;;;;;;;;;;;;;;7.77;63.93;99059.50;1086364;54;1082;-78
2024/01/01 01:44:22;;;;;;;;;;;;;;;7.72;64.46;99059.13;1085962;54;1166;-79
2024/01/01 01:45:22;;;;;;;;;;;;;;;7.78;64.00;99054.06;1086370;54;1853;-78
2024/01/01 01:46:28;;;;;;;;;;;;;;;7.80;63.90;99051.22;1087004;47;984;-78
2024/01/01 01:47:29;;;;;;;;;;;;;;;7.76;64.11;99063.16;1086845;54;1062;-79
2024/01/01 01:48:33;;;;;;;;;;;;;;;7.87;63.58;99062.94;1087475;47;1075;-79
2024/01/01 01:49:36;;;;;;;;;;;;;;;7.87;63.53;99056.78;1086732;47;1055;-79
2024/01/01 01:50:39;;;;;;;;;;;;;;;7.70;64.38;99059.25;1087484;54;1366;-79
2024/01/01 01:51:40;;;;;;;;;;;;;;;7.76;64.07;99058.69;1086675;47;1104;-79
2024/01/01 01:52:45;;;;;;;;;;;;;;;7.81;63.88;99055.56;1086838;47;1044;-78
2024/01/01 01:53:46;;;;;;;;;;;;;;;7.82;63.84;99051.94;1086580;54;1143;-78
2024/01/01 01:54:47;;;;;;;;;;;;;;;7.86;63.39;99055.13;1086925;54;1158;-78
2024/01/01 01:55:50;;;;;;;;;;;;;;;7.89;63.42;99065.44;1087349;54;1007;-78
2024/01/01 01:56:52;;;;;;;;;;;;;;;7.75;63.62;99064.13;1086770;54;1091;-78
2024/01/01 01:57:56;;;;;;;;;;;;;;;7.81;63.70;99064.38;1087162;54;1020;-78
2024/01/01 01:58:56;;;;;;;;;;;;;;;7.88;63.56;99064.59;1087651;54;1115;-80
2024/01/01 01:59:59;;;;;;;;;;;;;;;7.85;64.06;99064.09;1087649;47;1182;-78
2024/01/01 02:01:02;;;;;;;;;;;;;;;7.86;63.75;99066.59;1087505;47;1322;-79
2024/01/01 02:02:03;;;;;;;;;;;;;;;7.83;63.73;99061.59;1087867;54;1389;-78
2024/01/01 02:03:05;;;;;;;;;;;;;;;7.82;64.07;99065.22;1087810;54;1133;-78
2024/01/01 02:04:08;;;;;;;;;;;;;;;7.74;63.98;99067.81;1087816;47;1179;-79
2024/01/01 02:05:12;;;;;;;;;;;;;;;7.69;64.25;99065.59;1087793;54;1856;-79
2024/01/01 02:06:16;;;;;;;;;;;;;;;7.65;64.42;99065.03;1087552;47;1150;-79
2024/01/01 02:07:16;;;;;;;;;;;;;;;7.64;64.73;99065.19;1087369;54;1158;-79
2024/01/01 02:08:17;;;;;;;;;;;;;;;7.72;64.43;99064.47;1087558;54;992;-79
2024/01/01 02:09:21;;;;;;;;;;;;;;;7.62;64.65;99060.03;1087199;54;1102;-78
2024/01/01 02:10:21;;;;;;;;;;;;;;;7.54;65.06;99067.06;1087803;54;1272;-79
2024/01/01 02:11:24;;;;;;;;;;;;;;;7.62;64.63;99068.03;1087481;47;1059;-79
2024/01/01 02:12:25;;;;;;;;;;;;;;;7.60;64.92;99067.31;1087448;47;1098;-79
2024/01/01 02:13:29;;;;;;;;;;;;;;;7.62;64.68;99069.81;1087657;54;1125;-78
2024/01/01 02:14:30;;;;;;;;;;;;;;;7.62;64.85;99062.69;1087469;47;974;-78
2024/01/01 02:15:33;;;;;;;;;;;;;;;7.67;64.67;99066.72;1087360;47;1062;-79
2024/01/01 02:16:34;;;;;;;;;;;;;;;7.67;64.72;99062.25;1086450;47;1466;-79
2024/01/01 02:17:37;;;;;;;;;;;;;;;7.71;64.95;99068.09;1086269;47;1642;-78
2024/01/01 02:18:38;;;;;;;;;;;;;;;7.57;64.98;99051.66;1086788;54;1052;-79
2024/01/01 02:19:41;;;;;;;;;;;;;;;7.63;64.84;99045.75;1087302;47;1511;-78
2024/01/01 02:20:44;;;;;;;;;;;;;;;7.67;64.69;99056.06;1087582;47;1321;-78
2024/01/01 02:21:48;;;;;;;;;;;;;;;7.68;64.85;99058.59;1087419;54;1186;-77
2024/01/01 02:22:51;;;;;;;;;;;;;;;7.71;64.71;99062.78;1087178;54;1106;-78
2024/01/01 02:23:57;;;;;;;;;;;;;;;7.80;64.41;99052.06;1087545;47;1105;-78
2024/01/01 02:25:00;;;;;;;;;;;;;;;7.79;64.42;99061.03;1087652;54;1074;-78
2024/01/01 02:26:03;;;;;;;;;;;;;;;7.75;64.57;99056.16;1087586;54;1826;-77
2024/01/01 02:27:04;;;;;;;;;;;;;;;7.74;64.48;99067.81;1087401;47;998;-78
2024/01/01 02:28:08;;;;;;;;;;;;;;;7.66;64.82;99063.22;1087690;54;1108;-78
2024/01/01 02:29:08;;;;;;;;;;;;;;;7.77;64.81;99057.69;1087846;54;1084;-78
2024/01/01 02:30:13;;;;;;;;;;;;;;;7.76;64.89;99063.16;1086628;47;1350;-78
2024/01/01 02:31:13;;;;;;;;;;;;;;;7.82;64.75;99057.25;1086531;54;1154;-77
2024/01/01 02:32:29;;;;;;;;;;;;;;;7.75;65.03;99050.84;1086918;47;1082;-78
2024/01/01 02:33:30;;;;;;;;;;;;;;;7.71;65.27;99062.78;1087017;54;1153;-78
2024/01/01 02:34:34;;;;;;;;;;;;;;;7.76;65.07;99066.66;1087806;47;1110;-78
2024/01/01 02:35:35;;;;;;;;;;;;;;;7.83;64.66;99061.59;1087672;54;1193;-78
2024/01/01 02:36:39;;;;;;;;;;;;;;;7.86;64.68;99065.75;1088133;47;1194;-76
2024/01/01 02:37:40;;;;;;;;;;;;;;;7.92;64.79;99066.00;1088157;47;944;-76
2024/01/01 02:38:43;;;;;;;;;;;;;;;7.82;64.72;99059.91;1087958;54;1147;-76
2024/01/01 02:39:46;;;;;;;;;;;;;;;7.83;64.91;99066.91;1088028;47;1105;-77
2024/01/01 02:40:50;;;;;;;;;;;;;;;7.91;64.57;99068.78;1087532;54;1331;-76
2024/01/01 02:41:51;;;;;;;;;;;;;;;7.91;64.69;99066.97;1088054;54;972;-76
2024/01/01 02:42:52;;;;;;;;;;;;;;;7.91;64.79;99061.66;1088180;54;1062;-76
2024/01/01 02:43:55;;;;;;;;;;;;;;;7.90;64.63;99062.66;1088070;47;999;-76
2024/01/01 02:44:56;;;;;;;;;;;;;;;7.86;64.86;99068.41;1088130;54;999;-76
2024/01/01 02:46:00;;;;;;;;;;;;;;;7.89;64.58;99071.59;1088121;54;1854;-77
2024/01/01 02:47:00;;;;;;;;;;;;;;;7.96;64.45;99072.66;1088192;47;949;-77
2024/01/01 02:48:04;;;;;;;;;;;;;;;7.95;64.37;99071.00;1088088;47;1050;-76
2024/01/01 02:49:04;;;;;;;;;;;;;;;7.93;64.49;99075.66;1088199;54;1174;-76
2024/01/01 02:50:08;;;;;;;;;;;;;;;7.77;64.80;99064.81;1087852;54;1342;-76
2024/01/01 02:51:09;;;;;;;;;;;;;;;7.81;64.96;99068.88;1087878;47;1130;-76
2024/01/01 02:52:12;;;;;;;;;;;;;;;7.77;64.98;99071.00;1087915;54;1138;-76
2024/01/01 02:53:12;;;;;;;;;;;;;;;7.74;64.98;99067.81;1087885;47;1094;-77
2024/01/01 02:54:17;;;;;;;;;;;;;;;7.79;64.86;99076.16;1087788;54;1048;-76
2024/01/01 02:55:20;;;;;;;;;;;;;;;7.82;64.59;99070.56;1087823;54;1098;-76
2024/01/01 02:56:26;;;;;;;;;;;;;;;7.78;64.68;99074.47;1087812;54;1153;-77
2024/01/01 02:57:26;;;;;;;;;;;;;;;7.87;64.31;99073.59;1087838;47;1032;-77
2024/01/01 02:58:27;;;;;;;;;;;;;;;7.79;64.91;99076.97;1087757;47;1099;-77
2024/01/01 02:59:30;;;;;;;;;;;;;;;7.68;65.08;99073.72;1087782;47;1047;-77
2024/01/01 03:00:31;;;;;;;;;;;;;;;7.77;64.84;99076.31;1087952;54;1269;-77
2024/01/01 03:01:34;;;;;;;;;;;;;;;7.81;64.43;99082.19;1088224;54;1043;-77
2024/01/01 03:02:35;;;;;;;;;;;;;;;7.83;64.76;99077.53;1087905;47;1072;-76
2024/01/01 03:03:36;;;;;;;;;;;;;;;7.83;64.69;99077.53;1088119;46;1020;-76
2024/01/01 03:04:39;;;;;;;;;;;;;;;7.62;64.90;99081.31;1088012;54;1011;-77
2024/01/01 03:05:40;;;;;;;;;;;;;;;7.76;64.68;99076.44;1087969;54;1856;-76
2024/01/01 03:06:41;;;;;;;;;;;;;;;7.84;64.86;99073.88;1088213;46;1136;-75
2024/01/01 03:07:44;;;;;;;;;;;;;;;7.82;64.80;99075.88;1088087;54;1033;-77
2024/01/01 03:08:45;;;;;;;;;;;;;;;7.80;64.70;99076.00;1088204;54;1025;-77
2024/01/01 03:09:49;;;;;;;;;;;;;;;7.67;65.22;99080.00;1088092;47;1052;-77
2024/01/01 03:10:52;;;;;;;;;;;;;;;7.75;64.70;99074.78;1088142;54;1347;-77
2024/01/01 03:11:56;;;;;;;;;;;;;;;7.71;65.06;99084.06;1088246;54;1178;-77
2024/01/01 03:12:56;;;;;;;;;;;;;;;7.81;64.48;99074.19;1088214;47;1011;-76
2024/01/01 03:14:00;;;;;;;;;;;;;;;7.75;64.42;99082.75;1088192;54;1015;-77
2024/01/01 03:15:02;;;;;;;;;;;;;;;7.69;64.53;99076.25;1088227;46;927;-77
2024/01/01 03:16:07;;;;;;;;;;;;;;;7.73;64.57;99082.91;1088119;46;1055;-77
2024/01/01 03:17:07;;;;;;;;;;;;;;;7.67;64.70;99080.88;1088272;54;1167;-77
2024/01/01 03:18:12;;;;;;;;;;;;;;;7.67;64.78;99085.34;1088175;47;1112;-79
2024/01/01 03:19:12;;;;;;;;;;;;;;;7.74;64.36;99075.78;1088209;47;1111;-76
2024/01/01 03:20:16;;;;;;;;;;;;;;;7.80;64.29;99072.50;1088117;47;1211;-77
2024/01/01 03:21:16;;;;;;;;;;;;;;;7.77;64.21;99080.78;1088253;54;1052;-76
2024/01/01 03:22:17;;;;;;;;;;;;;;;7.70;64.65;99069.09;1088160;54;956;-76
2024/01/01 03:23:20;;;;;;;;;;;;;;;7.74;64.28;99067.81;1088309;54;1039;-77
2024/01/01 03:24:21;;;;;;;;;;;;;;;7.76;64.28;99071.13;1088335;47;1088;-78
2024/01/01 03:25:21;;;;;;;;;;;;;;;7.77;63.93;99072.81;1088385;54;1115;-76
